Terminal Aerodrome Forecast
Issued by NWS

Home | Current Version | Previous Version | Text Only | Print | Product List | Glossary On
Versions: 1 2 3 4 5 6 7 8 9 10 11 12 13 14 15
000
FTUS42 KMLB 200500
TAFSFB
TAF
KSFB 200539Z 2006/2106 07008KT 6SM -RA BR FEW015 BKN030 OVC060
      TEMPO 2006/2009 BKN025
     FM201400 VRB05KT P6SM VCSH SCT020 BKN050 OVC100
     FM201800 29006KT P6SM VCTS SCT025CB BKN040
      TEMPO 2018/2021 3SM TSRA BKN025CB
     FM210000 26004KT P6SM SCT025 BKN040 BKN080=

USA.gov is the U.S. government's official web portal to all federal, state and local government web resources and services.